Time;durP1;ratioP1;P1;durP2;ratioP2;P2;SDS_P1;SDS_P2;PMS_P1;PMS_P2;Temp;Humidity;BMP_temperature;BMP_pressure;BME280_temperature;BME280_humidity;BME280_pressure;Samples;Min_cycle;Max_cycle;Signal;HPM_P1;HPM_P2
2022/05/29 00:00:23;;;;;;;15.07;2.67;;;10.70;99.90;;;;;;5068395;28;20064;-82
2022/05/29 00:02:49;;;;;;;13.98;2.47;;;10.40;99.90;;;;;;5060307;28;20209;-84
2022/05/29 00:05:15;;;;;;;16.23;2.83;;;10.30;99.90;;;;;;5088009;28;20101;-83
2022/05/29 00:07:47;;;;;;;19.00;3.10;;;10.30;99.90;;;;;;5086051;28;20063;-82
2022/05/29 00:10:13;;;;;;;17.08;2.90;;;11.10;99.90;;;;;;5093117;28;20118;-83
2022/05/29 00:12:39;;;;;;;19.98;2.83;;;10.40;99.90;;;;;;5079735;28;20071;-84
2022/05/29 00:15:06;;;;;;;16.38;3.20;;;10.40;99.90;;;;;;5105507;27;20115;-87
2022/05/29 00:17:32;;;;;;;17.35;3.40;;;10.40;99.90;;;;;;5084353;27;20042;-83
2022/05/29 00:19:57;;;;;;;20.90;3.42;;;10.90;99.90;;;;;;5097502;27;20035;-80
2022/05/29 00:22:23;;;;;;;20.77;3.28;;;10.60;99.90;;;;;;5095014;27;20036;-83
2022/05/29 00:24:50;;;;;;;22.58;2.70;;;10.60;99.90;;;;;;5087319;27;20039;-84
2022/05/29 00:27:17;;;;;;;18.05;3.22;;;10.70;99.90;;;;;;5068814;28;20039;-83
2022/05/29 00:29:44;;;;;;;15.88;2.95;;;10.40;99.90;;;;;;5090348;28;20139;-83
2022/05/29 00:32:10;;;;;;;12.40;2.45;;;10.20;99.90;;;;;;5086987;27;20031;-84
2022/05/29 00:34:36;;;;;;;14.63;3.20;;;10.40;99.90;;;;;;5093091;28;20046;-84
2022/05/29 00:37:04;;;;;;;13.30;2.75;;;10.00;99.90;;;;;;5084545;28;20044;-83
2022/05/29 00:39:31;;;;;;;19.63;3.60;;;9.90;99.90;;;;;;5072514;28;20043;-83
2022/05/29 00:41:57;;;;;;;20.20;3.22;;;9.90;99.90;;;;;;5107551;27;20043;-83
2022/05/29 00:44:24;;;;;;;16.00;3.17;;;9.90;99.90;;;;;;5084866;28;20036;-82
2022/05/29 00:46:57;;;;;;;15.25;2.88;;;9.90;99.90;;;;;;5109666;27;20122;-83
2022/05/29 00:49:26;;;;;;;18.67;3.28;;;9.90;99.90;;;;;;5080411;28;20124;-84
2022/05/29 00:52:16;;;;;;;13.98;3.05;;;9.90;99.90;;;;;;5075916;28;20043;-85
2022/05/29 01:01:56;;;;;;;19.08;3.75;;;10.00;99.90;;;;;;5105055;28;20051;-81
2022/05/29 01:04:22;;;;;;;18.70;3.47;;;9.90;99.90;;;;;;5103291;28;20060;-85
2022/05/29 01:06:49;;;;;;;11.88;3.22;;;10.00;99.90;;;;;;5107181;27;20039;-86
2022/05/29 01:09:16;;;;;;;16.85;3.50;;;10.10;99.90;;;;;;5088483;27;20055;-84
2022/05/29 01:12:04;;;;;;;14.70;2.70;;;10.20;99.90;;;;;;5094230;28;20079;-86
2022/05/29 01:14:53;;;;;;;16.63;3.38;;;10.00;99.90;;;;;;5092642;28;20059;-83
2022/05/29 01:18:02;;;;;;;17.83;3.47;;;10.10;99.90;;;;;;5102112;27;20035;-82
2022/05/29 01:20:39;;;;;;;16.25;2.70;;;10.10;99.90;;;;;;5093272;28;20035;-83
2022/05/29 01:23:44;;;;;;;10.70;2.63;;;10.20;99.90;;;;;;5075008;27;20051;-85
2022/05/29 01:26:19;;;;;;;12.43;2.88;;;10.30;99.90;;;;;;5105848;27;20048;-82
2022/05/29 01:29:07;;;;;;;20.33;3.22;;;10.20;99.90;;;;;;5089548;27;20055;-81
2022/05/29 01:31:40;;;;;;;19.33;3.35;;;10.20;99.90;;;;;;5110508;27;20043;-84
2022/05/29 01:34:29;;;;;;;15.20;3.67;;;10.10;99.90;;;;;;5097448;27;20062;-83
2022/05/29 01:37:01;;;;;;;17.83;3.38;;;10.10;99.90;;;;;;5076413;27;20128;-83
2022/05/29 01:39:30;;;;;;;20.85;3.38;;;10.10;99.90;;;;;;5100794;28;20040;-82
2022/05/29 01:42:01;;;;;;;17.70;3.15;;;10.10;99.90;;;;;;5107257;27;20132;-83
2022/05/29 01:45:01;;;;;;;13.85;3.08;;;10.40;99.90;;;;;;5074093;28;20138;-83
2022/05/29 01:47:49;;;;;;;15.55;2.95;;;10.10;99.90;;;;;;5084632;27;20043;-84
2022/05/29 01:50:27;;;;;;;17.85;3.80;;;10.20;99.90;;;;;;5107893;27;20036;-83
2022/05/29 01:52:59;;;;;;;18.38;3.67;;;10.20;99.90;;;;;;5111221;27;20045;-86
2022/05/29 01:55:34;;;;;;;12.60;2.85;;;10.20;99.90;;;;;;5091596;28;20127;-83
2022/05/29 01:58:09;;;;;;;19.63;3.65;;;10.20;99.90;;;;;;5082237;28;20118;-82
2022/05/29 02:00:35;;;;;;;;;;;10.20;99.90;;;;;;5111139;27;20031;-83
2022/05/29 02:03:16;;;;;;;14.88;3.47;;;10.30;99.90;;;;;;5071521;28;19922;-84
2022/05/29 02:05:58;;;;;;;14.60;3.22;;;10.30;99.90;;;;;;5094798;27;20068;-82
2022/05/29 02:08:38;;;;;;;15.80;2.65;;;10.30;99.90;;;;;;5074983;27;20043;-82
2022/05/29 02:11:24;;;;;;;9.23;2.70;;;10.70;99.90;;;;;;5111298;27;20043;-81
2022/05/29 02:14:09;;;;;;;11.00;2.38;;;10.70;99.90;;;;;;5110381;27;20100;-82
2022/05/29 02:16:49;;;;;;;16.95;2.85;;;10.40;99.90;;;;;;5103002;27;20070;-83
2022/05/29 02:19:33;;;;;;;14.80;2.53;;;10.40;99.90;;;;;;5078381;27;20043;-82
2022/05/29 02:22:09;;;;;;;17.33;3.10;;;10.40;99.90;;;;;;5098940;28;20070;-83
2022/05/29 02:24:51;;;;;;;15.88;2.83;;;10.40;99.90;;;;;;5100391;28;20370;-82
2022/05/29 02:31:14;;;;;;;22.92;3.63;;;10.40;99.90;;;;;;5126051;27;20192;-81
2022/05/29 02:34:00;;;;;;;17.75;3.13;;;10.50;99.90;;;;;;5104628;27;20051;-83
2022/05/29 02:36:50;;;;;;;19.80;3.22;;;10.60;99.90;;;;;;5082872;28;20495;-81
2022/05/29 02:39:22;;;;;;;15.27;3.30;;;10.50;99.90;;;;;;5080111;27;20044;-83
2022/05/29 02:41:50;;;;;;;16.20;2.80;;;10.60;99.90;;;;;;5090831;27;20116;-81
2022/05/29 02:44:39;;;;;;;15.75;2.97;;;10.60;99.90;;;;;;5097923;27;20046;-82
2022/05/29 02:47:23;;;;;;;8.48;2.25;;;10.70;99.90;;;;;;5109069;27;20127;-82
2022/05/29 02:50:11;;;;;;;12.45;2.25;;;10.70;99.90;;;;;;5107493;27;20719;-83
2022/05/29 02:52:37;;;;;;;12.38;3.00;;;10.40;99.90;;;;;;5109369;27;20470;-84
2022/05/29 02:55:03;;;;;;;9.48;2.40;;;10.80;99.90;;;;;;5092907;27;20031;-82
2022/05/29 02:57:28;;;;;;;10.07;2.05;;;10.20;99.90;;;;;;5079737;27;20101;-83
2022/05/29 03:00:02;;;;;;;21.88;3.58;;;10.10;99.90;;;;;;5076748;28;20043;-83
2022/05/29 03:03:06;;;;;;;15.38;3.05;;;10.10;99.90;;;;;;5104568;27;20032;-82
2022/05/29 03:05:46;;;;;;;13.82;3.03;;;10.10;99.90;;;;;;5091875;28;20386;-83
2022/05/29 03:08:34;;;;;;;14.70;3.00;;;10.20;99.90;;;;;;5084523;27;20043;-82
2022/05/29 03:11:37;;;;;;;14.57;2.70;;;10.10;99.90;;;;;;5061418;28;20356;-82
2022/05/29 03:14:24;;;;;;;14.85;2.67;;;10.10;99.90;;;;;;5021625;28;20049;-82
2022/05/29 03:17:23;;;;;;;13.88;2.70;;;10.10;99.90;;;;;;5029325;28;20057;-83
2022/05/29 03:20:08;;;;;;;13.27;2.83;;;10.20;99.90;;;;;;5007117;28;20049;-82
2022/05/29 03:23:17;;;;;;;12.55;2.70;;;10.10;99.90;;;;;;5023835;28;20100;-82
2022/05/29 03:25:54;;;;;;;18.95;2.97;;;10.20;99.90;;;;;;5017232;28;20404;-82
2022/05/29 03:28:33;;;;;;;20.80;2.65;;;10.30;99.90;;;;;;5011417;28;20500;-83
2022/05/29 03:31:03;;;;;;;12.63;2.35;;;10.30;99.90;;;;;;5004892;28;20512;-82
2022/05/29 03:33:29;;;;;;;10.68;2.30;;;10.60;99.90;;;;;;5029876;28;20041;-83
2022/05/29 03:35:54;;;;;;;9.80;2.25;;;10.30;99.90;;;;;;5019274;28;20048;-83
2022/05/29 03:38:21;;;;;;;13.00;2.38;;;10.70;99.90;;;;;;5014079;28;20073;-82
2022/05/29 03:40:49;;;;;;;12.05;2.28;;;10.50;99.90;;;;;;5013329;28;20083;-83
2022/05/29 03:43:14;;;;;;;11.50;2.00;;;10.30;99.90;;;;;;5030344;28;20118;-82
2022/05/29 03:45:40;;;;;;;9.73;2.40;;;10.60;99.90;;;;;;5018041;28;20552;-82
2022/05/29 03:48:06;;;;;;;12.35;2.25;;;10.30;99.90;;;;;;5013527;28;20056;-82
2022/05/29 03:50:35;;;;;;;8.02;1.77;;;10.40;99.90;;;;;;5039211;28;20052;-83
2022/05/29 03:53:05;;;;;;;9.88;2.17;;;10.40;99.90;;;;;;5081090;28;20367;-83
2022/05/29 03:55:32;;;;;;;16.05;2.13;;;10.80;99.90;;;;;;5095069;28;20360;-80
2022/05/29 03:57:57;;;;;;;11.82;2.13;;;10.40;99.90;;;;;;5126870;28;20117;-80
2022/05/29 04:00:24;;;;;;;22.77;2.65;;;10.90;99.90;;;;;;5118074;28;20036;-81
2022/05/29 04:02:51;;;;;;;10.60;2.28;;;10.40;99.90;;;;;;5083645;28;20449;-81
2022/05/29 04:05:20;;;;;;;15.30;2.80;;;10.40;99.90;;;;;;5094464;28;20059;-83
2022/05/29 04:13:40;;;;;;;13.75;2.47;;;10.40;99.90;;;;;;5096395;28;20044;-83
2022/05/29 04:16:07;;;;;;;15.23;2.67;;;10.30;99.90;;;;;;5093014;28;20269;-82
2022/05/29 04:18:32;;;;;;;13.00;2.53;;;10.70;99.90;;;;;;5085906;28;20136;-80
2022/05/29 04:20:58;;;;;;;15.35;2.58;;;10.50;99.90;;;;;;5071956;28;20076;-82
2022/05/29 04:23:25;;;;;;;17.98;2.60;;;10.30;99.90;;;;;;5089466;28;20434;-83
2022/05/29 04:25:50;;;;;;;16.48;2.75;;;10.30;99.90;;;;;;5069438;28;20036;-83
2022/05/29 04:28:19;;;;;;;15.85;2.70;;;10.30;99.90;;;;;;5083325;28;20398;-83
2022/05/29 04:30:45;;;;;;;19.23;2.40;;;10.30;99.90;;;;;;5071943;28;20052;-84
2022/05/29 04:33:12;;;;;;;14.35;2.92;;;10.90;99.90;;;;;;5083493;28;20036;-82
2022/05/29 04:35:41;;;;;;;11.90;2.60;;;10.20;99.90;;;;;;5072736;28;20036;-83
2022/05/29 04:38:07;;;;;;;25.02;3.58;;;10.20;99.90;;;;;;5095222;28;20041;-83
2022/05/29 04:40:37;;;;;;;17.50;2.75;;;10.30;99.90;;;;;;5087643;28;20024;-83
2022/05/29 04:43:03;;;;;;;20.73;3.75;;;10.60;99.90;;;;;;5093164;28;20050;-82
2022/05/29 04:45:28;;;;;;;16.95;2.88;;;10.40;99.90;;;;;;5106202;27;20508;-83
2022/05/29 04:47:54;;;;;;;21.92;2.95;;;10.00;99.90;;;;;;5097583;28;20126;-84
2022/05/29 04:50:20;;;;;;;23.98;2.85;;;10.60;99.90;;;;;;5098398;28;20044;-83
2022/05/29 04:52:46;;;;;;;18.08;2.90;;;10.20;99.90;;;;;;5093885;28;20044;-83
2022/05/29 04:55:12;;;;;;;14.93;2.83;;;10.00;99.90;;;;;;5085281;28;20047;-83
2022/05/29 04:57:37;;;;;;;14.85;2.58;;;10.10;99.90;;;;;;5093080;28;20570;-83
2022/05/29 05:00:05;;;;;;;14.93;2.60;;;10.20;99.90;;;;;;5093331;28;20039;-83
2022/05/29 05:02:31;;;;;;;16.45;2.58;;;10.20;99.90;;;;;;5082822;28;20451;-82
2022/05/29 05:04:56;;;;;;;16.60;2.70;;;10.40;99.90;;;;;;5089525;28;20071;-83
2022/05/29 05:07:22;;;;;;;17.48;2.10;;;10.30;99.90;;;;;;5093830;28;20074;-83
2022/05/29 05:09:48;;;;;;;15.95;2.40;;;10.50;99.90;;;;;;5088235;28;20483;-83
2022/05/29 05:12:14;;;;;;;20.25;2.58;;;10.40;99.90;;;;;;5072405;28;20060;-82
2022/05/29 05:14:40;;;;;;;19.80;3.20;;;10.40;99.90;;;;;;5071558;28;20059;-82
2022/05/29 05:17:06;;;;;;;18.70;2.85;;;10.50;99.90;;;;;;5091675;28;20044;-82
2022/05/29 05:19:32;;;;;;;15.75;2.42;;;10.50;99.90;;;;;;5091158;28;20050;-82
2022/05/29 05:22:02;;;;;;;18.10;3.00;;;10.60;99.90;;;;;;5095194;28;20048;-82
2022/05/29 05:24:28;;;;;;;14.30;2.17;;;10.50;99.90;;;;;;5095344;28;20035;-80
2022/05/29 05:26:54;;;;;;;14.85;2.70;;;10.50;99.90;;;;;;5103335;28;20171;-77
2022/05/29 05:29:20;;;;;;;15.30;2.35;;;10.80;99.90;;;;;;5088159;28;20052;-82
2022/05/29 05:31:46;;;;;;;13.43;2.08;;;10.50;99.90;;;;;;5084353;28;20049;-82
2022/05/29 05:34:12;;;;;;;12.73;2.85;;;10.40;99.90;;;;;;5088437;28;20047;-82
2022/05/29 05:36:38;;;;;;;21.70;3.35;;;10.20;99.90;;;;;;5093209;28;20105;-82
2022/05/29 05:39:04;;;;;;;12.30;2.58;;;10.10;99.90;;;;;;5071920;28;20051;-82
2022/05/29 05:41:30;;;;;;;24.75;3.25;;;10.10;99.90;;;;;;5088619;28;20044;-82
2022/05/29 05:43:56;;;;;;;20.58;2.97;;;10.10;99.90;;;;;;5086390;28;20039;-83
2022/05/29 05:46:21;;;;;;;21.15;2.95;;;10.50;99.90;;;;;;5086755;28;20038;-82
2022/05/29 05:48:48;;;;;;;15.23;3.00;;;10.10;99.90;;;;;;5083108;28;20067;-81
2022/05/29 05:51:14;;;;;;;17.05;3.22;;;10.40;99.90;;;;;;5074801;28;20093;-82
2022/05/29 05:53:41;;;;;;;18.55;3.35;;;10.80;99.90;;;;;;5089933;28;20636;-81
2022/05/29 05:56:17;;;;;;;21.30;2.97;;;10.40;99.90;;;;;;5075073;28;20050;-81
2022/05/29 05:58:44;;;;;;;11.68;2.15;;;10.70;99.90;;;;;;5084701;28;20470;-81
2022/05/29 06:01:16;;;;;;;24.65;3.30;;;10.50;99.90;;;;;;5073057;28;20395;-82
2022/05/29 06:03:43;;;;;;;20.48;3.00;;;10.50;99.90;;;;;;5074461;28;20040;-82
2022/05/29 06:06:09;;;;;;;19.55;3.30;;;10.60;99.90;;;;;;5072666;28;20052;-82
2022/05/29 06:08:35;;;;;;;19.05;3.20;;;10.60;99.90;;;;;;5087422;28;20045;-82
2022/05/29 06:11:01;;;;;;;16.60;2.97;;;10.90;99.90;;;;;;5085335;28;20119;-82
2022/05/29 06:13:27;;;;;;;19.15;2.80;;;10.70;99.90;;;;;;5076836;28;20131;-83
2022/05/29 06:15:53;;;;;;;15.38;2.95;;;10.80;99.90;;;;;;5072696;28;20135;-82
2022/05/29 06:18:19;;;;;;;16.02;2.60;;;10.80;99.90;;;;;;5097690;28;20108;-83
2022/05/29 06:20:46;;;;;;;20.05;2.05;;;11.00;99.90;;;;;;5069919;28;20028;-82
2022/05/29 06:23:14;;;;;;;20.02;2.83;;;10.90;99.90;;;;;;5083507;28;20484;-83
2022/05/29 06:25:43;;;;;;;15.88;2.75;;;10.90;99.90;;;;;;5081024;28;20123;-82
2022/05/29 06:28:09;;;;;;;19.77;2.55;;;11.00;99.90;;;;;;5095668;28;20127;-84
2022/05/29 06:30:35;;;;;;;13.95;2.17;;;11.30;99.90;;;;;;5082707;28;20048;-83
2022/05/29 06:33:01;;;;;;;12.10;2.10;;;10.90;99.90;;;;;;5083285;28;20067;-83
2022/05/29 06:35:27;;;;;;;12.07;2.25;;;11.00;99.90;;;;;;5079996;28;20044;-82
2022/05/29 06:37:53;;;;;;;19.85;2.72;;;11.00;99.90;;;;;;5075719;28;20036;-84
2022/05/29 06:40:19;;;;;;;17.23;2.30;;;11.10;99.90;;;;;;5091414;28;20048;-83
2022/05/29 06:42:44;;;;;;;11.77;2.28;;;11.90;99.90;;;;;;5090623;28;20042;-83
2022/05/29 06:45:11;;;;;;;9.38;1.75;;;11.00;99.90;;;;;;5091315;28;20122;-82
2022/05/29 06:47:39;;;;;;;13.90;2.53;;;11.00;99.90;;;;;;5086874;28;20071;-84
2022/05/29 06:50:05;;;;;;;13.30;1.92;;;11.00;99.90;;;;;;5094421;28;20047;-83
2022/05/29 06:52:32;;;;;;;14.50;1.70;;;11.00;99.90;;;;;;5090535;28;20089;-84
2022/05/29 06:54:59;;;;;;;9.38;1.88;;;11.10;99.90;;;;;;5100242;28;20044;-81
2022/05/29 06:57:37;;;;;;;13.25;2.13;;;11.70;99.90;;;;;;5086865;28;20033;-80
2022/05/29 07:08:24;;;;;;;11.93;1.90;;;11.30;99.90;;;;;;5082909;28;20046;-85
2022/05/29 07:10:50;;;;;;;15.57;2.08;;;11.20;99.90;;;;;;5078093;28;20044;-83
2022/05/29 07:13:17;;;;;;;15.02;2.25;;;11.20;99.90;;;;;;5069214;28;20444;-80
2022/05/29 07:15:43;;;;;;;12.57;1.75;;;11.20;99.90;;;;;;5089185;28;20429;-82
2022/05/29 07:18:10;;;;;;;8.10;1.48;;;11.10;99.90;;;;;;5077067;28;20032;-78
2022/05/29 07:20:36;;;;;;;12.43;1.92;;;11.10;99.90;;;;;;5083138;28;20048;-81
2022/05/29 07:23:01;;;;;;;11.88;1.85;;;11.10;99.90;;;;;;5072093;28;20035;-78
2022/05/29 07:25:27;;;;;;;10.60;2.30;;;11.00;99.90;;;;;;5091768;28;20355;-84
2022/05/29 07:27:53;;;;;;;6.95;1.30;;;11.00;99.90;;;;;;5054666;28;20138;-81
2022/05/29 07:30:19;;;;;;;9.27;1.75;;;11.40;99.90;;;;;;5074586;28;20036;-80
2022/05/29 07:32:47;;;;;;;9.90;1.70;;;11.10;99.90;;;;;;5093242;28;20502;-82
2022/05/29 07:35:16;;;;;;;10.63;1.52;;;11.10;99.90;;;;;;5068658;28;20041;-80
2022/05/29 07:37:43;;;;;;;9.55;1.50;;;11.30;99.90;;;;;;5073972;28;20028;-83
2022/05/29 07:40:09;;;;;;;9.70;1.55;;;11.30;99.90;;;;;;5089836;28;20028;-82
2022/05/29 07:45:22;;;;;;;9.77;1.60;;;11.40;99.90;;;;;;5089560;28;20127;-83
2022/05/29 07:47:48;;;;;;;11.82;1.55;;;11.60;99.90;;;;;;5081570;28;20063;-81
2022/05/29 07:50:17;;;;;;;7.00;1.38;;;11.60;99.90;;;;;;5091244;28;20160;-81
2022/05/29 07:52:45;;;;;;;7.20;1.30;;;11.60;99.90;;;;;;5079758;28;20542;-82
2022/05/29 07:55:11;;;;;;;8.60;1.50;;;11.50;99.90;;;;;;5090696;28;20458;-85
2022/05/29 07:58:10;;;;;;;8.85;1.75;;;11.60;99.90;;;;;;5084785;28;20044;-86
2022/05/29 08:00:36;;;;;;;;;;;11.50;99.90;;;;;;5078507;28;20137;-89
2022/05/29 08:03:03;;;;;;;5.85;1.35;;;11.40;99.90;;;;;;5082497;28;19968;-82
2022/05/29 08:05:31;;;;;;;4.75;1.23;;;11.40;99.90;;;;;;5090365;28;20043;-80
2022/05/29 08:07:58;;;;;;;10.38;2.55;;;11.30;99.90;;;;;;5076847;28;20044;-82
2022/05/29 08:10:24;;;;;;;12.30;1.88;;;11.30;99.90;;;;;;5070527;28;20502;-82
2022/05/29 08:12:51;;;;;;;11.13;2.08;;;11.40;99.90;;;;;;5069490;28;20090;-82
2022/05/29 08:15:17;;;;;;;13.38;1.90;;;11.50;99.90;;;;;;5080674;28;20052;-84
2022/05/29 08:17:42;;;;;;;10.80;1.83;;;11.60;99.90;;;;;;5081495;28;20036;-86
2022/05/29 08:20:11;;;;;;;6.70;1.08;;;12.20;99.90;;;;;;5092472;28;20032;-81
2022/05/29 08:22:38;;;;;;;10.73;1.30;;;11.50;99.90;;;;;;5092960;28;20040;-78
2022/05/29 08:30:40;;;;;;;11.32;1.70;;;11.30;99.90;;;;;;5088442;28;20071;-84
2022/05/29 08:33:08;;;;;;;11.70;1.77;;;11.10;99.90;;;;;;5081857;28;20067;-82
2022/05/29 08:35:34;;;;;;;10.77;1.85;;;11.00;99.90;;;;;;5072193;28;20622;-83
2022/05/29 08:38:02;;;;;;;12.15;2.05;;;11.00;99.90;;;;;;5081906;28;20101;-83
2022/05/29 08:40:30;;;;;;;8.10;1.67;;;11.00;99.90;;;;;;5073558;28;20131;-80
2022/05/29 08:42:56;;;;;;;10.05;1.77;;;11.00;99.90;;;;;;5086709;28;20058;-80
2022/05/29 08:45:22;;;;;;;8.80;1.63;;;11.00;99.90;;;;;;5090189;28;20460;-82
2022/05/29 08:47:49;;;;;;;9.93;1.83;;;10.90;99.90;;;;;;5089635;28;20401;-81
2022/05/29 08:50:41;;;;;;;10.65;1.73;;;11.00;99.90;;;;;;5085709;28;20074;-81
2022/05/29 08:53:20;;;;;;;12.43;1.60;;;11.10;99.90;;;;;;5067528;28;20069;-87
2022/05/29 08:55:53;;;;;;;6.72;1.48;;;11.20;99.90;;;;;;5093102;27;20048;-88
2022/05/29 08:58:37;;;;;;;10.57;1.98;;;11.30;99.90;;;;;;5078659;28;20126;-84
2022/05/29 09:01:27;;;;;;;7.38;1.30;;;11.30;99.90;;;;;;5107209;28;20044;-85
2022/05/29 09:04:00;;;;;;;6.57;1.30;;;11.30;99.90;;;;;;5105815;27;20055;-83
2022/05/29 09:06:37;;;;;;;7.93;1.70;;;11.10;99.90;;;;;;5065259;28;20043;-80
2022/05/29 09:09:06;;;;;;;11.18;1.77;;;11.10;99.90;;;;;;5076361;28;21752;-82
2022/05/29 09:11:44;;;;;;;7.03;1.20;;;11.20;99.90;;;;;;5080405;28;20072;-81
2022/05/29 09:14:32;;;;;;;5.78;1.35;;;11.30;99.90;;;;;;5067331;28;20451;-82
2022/05/29 09:17:06;;;;;;;8.00;1.80;;;11.30;99.90;;;;;;5077091;28;20052;-80
2022/05/29 09:19:34;;;;;;;11.32;1.80;;;11.50;99.90;;;;;;5066548;28;20837;-82
2022/05/29 09:22:37;;;;;;;8.88;1.60;;;11.60;99.90;;;;;;5097870;28;20055;-82
2022/05/29 09:25:12;;;;;;;11.13;1.30;;;11.70;99.90;;;;;;5019051;28;20106;-82
2022/05/29 09:27:44;;;;;;;12.07;2.28;;;11.80;99.90;;;;;;5026588;28;20413;-79
2022/05/29 09:30:11;;;;;;;7.68;1.42;;;11.60;99.90;;;;;;5014099;28;20045;-78
2022/05/29 09:33:06;;;;;;;17.85;2.25;;;11.50;99.90;;;;;;5001355;28;20077;-82
2022/05/29 09:35:35;;;;;;;11.10;2.00;;;11.40;99.90;;;;;;5011922;28;20045;-74
2022/05/29 09:38:06;;;;;;;13.98;2.17;;;11.50;99.90;;;;;;5010162;28;20132;-76
2022/05/29 09:40:48;;;;;;;7.30;1.52;;;11.50;99.90;;;;;;5004947;28;20124;-77
2022/05/29 09:43:16;;;;;;;10.20;1.88;;;11.50;99.90;;;;;;5014181;28;20045;-75
2022/05/29 09:45:43;;;;;;;10.35;2.00;;;11.80;99.90;;;;;;5013628;28;20565;-77
2022/05/29 09:51:21;;;;;;;18.92;2.67;;;12.30;99.90;;;;;;5021052;28;20110;-75
2022/05/29 09:53:53;;;;;;;9.07;2.05;;;12.20;99.90;;;;;;5008814;28;20199;-80
2022/05/29 09:56:30;;;;;;;12.63;2.15;;;12.10;99.90;;;;;;5035636;28;20508;-77
2022/05/29 09:59:10;;;;;;;7.65;1.65;;;12.30;99.90;;;;;;5039549;28;20155;-74
2022/05/29 10:01:46;;;;;;;8.85;2.05;;;12.30;99.90;;;;;;5071845;28;20032;-78
2022/05/29 10:04:20;;;;;;;7.07;1.20;;;12.60;99.90;;;;;;5089539;28;20403;-80
2022/05/29 10:06:53;;;;;;;13.23;2.13;;;12.60;99.90;;;;;;5110531;28;20048;-81
2022/05/29 10:09:22;;;;;;;11.38;2.33;;;12.40;99.90;;;;;;5092199;28;20035;-77
2022/05/29 10:11:51;;;;;;;11.30;1.90;;;12.30;99.90;;;;;;5071842;28;20089;-78
2022/05/29 10:14:32;;;;;;;11.40;1.67;;;12.40;99.90;;;;;;5095580;28;20052;-79
2022/05/29 10:16:58;;;;;;;14.00;1.63;;;12.50;99.90;;;;;;5074883;28;20567;-81
2022/05/29 10:19:35;;;;;;;7.47;1.60;;;12.40;99.90;;;;;;5086515;28;20124;-79
2022/05/29 10:22:02;;;;;;;11.80;1.75;;;12.30;99.90;;;;;;5063935;28;20161;-86
2022/05/29 10:24:40;;;;;;;7.05;1.42;;;12.30;99.90;;;;;;5070508;28;20071;-79
2022/05/29 10:27:30;;;;;;;13.43;1.70;;;12.20;99.90;;;;;;5073452;28;20032;-81
2022/05/29 10:30:04;;;;;;;15.75;1.42;;;12.00;99.90;;;;;;5079389;28;20040;-82
2022/05/29 10:32:33;;;;;;;5.80;1.15;;;11.90;99.90;;;;;;5084932;28;20556;-84
2022/05/29 10:35:11;;;;;;;11.60;1.52;;;12.20;99.90;;;;;;5084072;28;20048;-80
2022/05/29 10:37:44;;;;;;;5.10;1.10;;;12.40;99.90;;;;;;5090786;28;20910;-84
2022/05/29 10:40:17;;;;;;;10.02;1.30;;;12.80;99.90;;;;;;5088896;28;20117;-79
2022/05/29 10:42:46;;;;;;;7.03;1.63;;;12.80;99.90;;;;;;5072793;28;20047;-79
2022/05/29 10:45:28;;;;;;;7.55;1.70;;;12.60;99.90;;;;;;5091077;28;20130;-85
2022/05/29 10:48:02;;;;;;;11.27;1.55;;;12.50;99.90;;;;;;5070492;28;20087;-82
2022/05/29 10:50:36;;;;;;;10.18;2.00;;;12.20;99.90;;;;;;5064578;28;20044;-80
2022/05/29 10:53:42;;;;;;;12.32;1.77;;;11.90;99.90;;;;;;5080912;28;20044;-83
2022/05/29 10:56:19;;;;;;;;;;;11.70;99.90;;;;;;5089619;28;20114;-81
2022/05/29 11:05:06;;;;;;;7.55;1.60;;;11.00;99.90;;;;;;5078655;28;20044;-80
2022/05/29 11:07:46;;;;;;;13.90;2.00;;;11.00;99.90;;;;;;5073232;28;20189;-82
2022/05/29 11:10:30;;;;;;;9.68;1.75;;;11.10;99.90;;;;;;5093248;28;20076;-82
2022/05/29 11:13:51;;;;;;;12.20;2.08;;;11.20;99.90;;;;;;5089390;28;20040;-75
2022/05/29 11:16:52;;;;;;;10.77;1.90;;;11.40;99.90;;;;;;5076074;28;20463;-83
2022/05/29 11:19:53;;;;;;;9.93;1.85;;;11.70;99.90;;;;;;5111953;28;20785;-80
2022/05/29 11:22:24;;;;;;;11.60;1.55;;;11.90;99.90;;;;;;5092902;28;20091;-82
2022/05/29 11:25:06;;;;;;;14.63;2.15;;;12.10;99.90;;;;;;5078729;28;20044;-81
2022/05/29 11:27:53;;;;;;;18.52;2.30;;;12.40;99.90;;;;;;5074568;28;20044;-81
2022/05/29 11:30:50;;;;;;;11.55;2.00;;;12.60;99.90;;;;;;5069380;28;20040;-80
2022/05/29 11:33:50;;;;;;;17.65;2.00;;;12.60;99.90;;;;;;5091133;28;20079;-81
2022/05/29 11:36:40;;;;;;;13.77;2.33;;;12.70;99.90;;;;;;5070059;28;20044;-81
2022/05/29 11:39:14;;;;;;;12.73;2.08;;;12.80;99.90;;;;;;5069877;28;20044;-81
2022/05/29 11:41:51;;;;;;;;;;;12.70;99.90;;;;;;5065663;28;20040;-82
2022/05/29 11:44:55;;;;;;;11.00;1.98;;;12.70;99.90;;;;;;5091238;28;19920;-80
2022/05/29 11:53:39;;;;;;;9.68;1.85;;;12.70;99.90;;;;;;5085277;28;20041;-81
2022/05/29 11:56:11;;;;;;;15.13;1.80;;;12.70;99.90;;;;;;5091864;28;20040;-78
2022/05/29 12:02:30;;;;;;;12.70;1.60;;;12.80;99.90;;;;;;5103098;28;20039;-78
2022/05/29 12:05:01;;;;;;;13.38;1.80;;;12.70;99.90;;;;;;5099039;28;20053;-78
2022/05/29 12:07:34;;;;;;;10.98;2.13;;;12.50;99.90;;;;;;5089576;28;20070;-80
2022/05/29 12:10:10;;;;;;;13.30;1.95;;;12.20;99.90;;;;;;5105296;28;20325;-78
2022/05/29 12:12:43;;;;;;;16.45;2.25;;;11.80;99.90;;;;;;5104594;28;20066;-79
2022/05/29 12:15:20;;;;;;;10.38;1.90;;;11.60;99.90;;;;;;5078020;28;20043;-81
2022/05/29 12:17:51;;;;;;;15.73;2.50;;;11.40;99.90;;;;;;5078540;28;20039;-80
2022/05/29 12:20:20;;;;;;;9.98;2.10;;;11.50;99.90;;;;;;5062753;28;20044;-82
2022/05/29 12:22:49;;;;;;;11.63;1.83;;;11.60;99.90;;;;;;5066915;28;20080;-78
2022/05/29 12:25:25;;;;;;;11.27;1.90;;;11.60;99.90;;;;;;5080137;28;20059;-79
2022/05/29 12:27:53;;;;;;;11.75;1.88;;;11.60;99.90;;;;;;5096391;28;20183;-80
2022/05/29 12:30:35;;;;;;;11.57;1.98;;;11.50;99.90;;;;;;5093613;28;20048;-80
2022/05/29 12:33:09;;;;;;;13.38;1.98;;;11.90;99.90;;;;;;5072952;28;20048;-79
2022/05/29 12:35:42;;;;;;;11.88;1.77;;;11.90;99.90;;;;;;5078043;28;20044;-80
2022/05/29 12:38:43;;;;;;;21.92;2.67;;;12.10;99.90;;;;;;5103751;28;20058;-77
2022/05/29 12:41:49;;;;;;;13.45;1.83;;;12.40;99.90;;;;;;5084854;28;20055;-80
2022/05/29 12:44:59;;;;;;;13.32;2.15;;;12.50;99.90;;;;;;5094494;28;20118;-78
2022/05/29 12:47:38;;;;;;;11.10;2.05;;;12.90;99.90;;;;;;5094353;28;20040;-79
2022/05/29 12:50:30;;;;;;;10.35;1.73;;;13.10;99.90;;;;;;5093276;28;20051;-80
2022/05/29 12:53:11;;;;;;;12.35;2.05;;;13.30;99.90;;;;;;5059315;28;20570;-81
2022/05/29 12:56:16;;;;;;;10.10;1.60;;;13.30;99.90;;;;;;5093751;28;20173;-82
2022/05/29 12:58:56;;;;;;;11.82;2.00;;;13.10;99.90;;;;;;5091319;28;20067;-80
2022/05/29 13:01:46;;;;;;;9.65;1.55;;;13.20;99.90;;;;;;5099733;28;20044;-82
2022/05/29 13:04:30;;;;;;;10.05;2.25;;;12.90;99.90;;;;;;5073665;28;20040;-80
2022/05/29 13:07:16;;;;;;;8.73;1.83;;;13.10;99.90;;;;;;5057272;28;20040;-80
2022/05/29 13:10:04;;;;;;;13.50;2.10;;;13.00;99.90;;;;;;5084977;28;20112;-81
2022/05/29 13:12:36;;;;;;;8.48;1.40;;;13.20;99.90;;;;;;5073144;28;20110;-79
2022/05/29 13:15:09;;;;;;;16.58;2.55;;;13.20;99.90;;;;;;5056899;28;20046;-82
2022/05/29 13:17:35;;;;;;;13.73;2.25;;;13.20;99.90;;;;;;5097542;28;20033;-83
2022/05/29 13:20:08;;;;;;;7.93;1.52;;;13.20;99.90;;;;;;5098370;28;20044;-82
2022/05/29 13:23:08;;;;;;;10.98;2.20;;;13.20;99.90;;;;;;5086513;28;20105;-81
2022/05/29 13:25:36;;;;;;;15.80;2.63;;;13.30;99.90;;;;;;5051747;28;20063;-81
2022/05/29 13:28:48;;;;;;;11.93;1.80;;;13.40;99.90;;;;;;5035795;28;20136;-79
2022/05/29 13:31:16;;;;;;;13.60;2.25;;;13.20;99.90;;;;;;5031515;28;20456;-81
2022/05/29 13:34:14;;;;;;;9.40;1.83;;;12.90;99.90;;;;;;5009254;28;20432;-80
2022/05/29 13:36:43;;;;;;;15.07;2.00;;;12.80;99.90;;;;;;5026398;28;20072;-80
2022/05/29 13:39:24;;;;;;;11.43;2.58;;;12.80;99.90;;;;;;5045404;28;20204;-78
2022/05/29 13:41:59;;;;;;;18.77;1.98;;;12.70;99.90;;;;;;5023614;28;20148;-78
2022/05/29 13:44:30;;;;;;;;;;;12.60;99.90;;;;;;5033185;28;20060;-80
2022/05/29 13:47:19;;;;;;;19.13;2.17;;;12.50;99.90;;;;;;5034310;28;19917;-81
2022/05/29 13:49:48;;;;;;;8.68;1.85;;;12.60;99.90;;;;;;5027219;28;20453;-78
2022/05/29 13:52:57;;;;;;;9.65;2.00;;;12.80;99.90;;;;;;5043656;28;20042;-78
2022/05/29 13:55:33;;;;;;;20.45;2.33;;;12.80;99.90;;;;;;4984690;28;20461;-80
2022/05/29 14:06:41;;;;;;;8.77;1.83;;;13.30;99.90;;;;;;5008166;28;20065;-76
2022/05/29 14:09:12;;;;;;;14.27;2.58;;;13.30;99.90;;;;;;5011284;28;20037;-79
2022/05/29 14:11:44;;;;;;;13.02;2.33;;;13.40;99.90;;;;;;5010872;28;20033;-79
2022/05/29 14:14:33;;;;;;;12.85;2.05;;;13.40;99.90;;;;;;5023455;28;20065;-81
2022/05/29 14:17:22;;;;;;;12.63;2.20;;;13.20;99.90;;;;;;5007727;28;20056;-81